createdAt,value
2023-04-23T03:59:26.749Z,99221.94
2023-04-23T04:01:53.334Z,99224.84
2023-04-23T04:04:20.134Z,99211.75
2023-04-23T04:06:46.916Z,99221.47
2023-04-23T04:09:13.473Z,99215.97
2023-04-23T04:11:39.943Z,99228.91
2023-04-23T04:14:06.490Z,99229.19
2023-04-23T04:16:33.170Z,99234.38
2023-04-23T04:18:59.805Z,99240.53
2023-04-23T04:21:26.297Z,99234.97
2023-04-23T04:23:53.053Z,99232.53
2023-04-23T04:26:19.526Z,99242.09
2023-04-23T04:28:45.992Z,99230.91
2023-04-23T04:31:14.093Z,99243.22
2023-04-23T04:33:40.623Z,99239.00
2023-04-23T04:36:07.490Z,99237.66
2023-04-23T04:38:34.025Z,99236.75
2023-04-23T04:41:00.997Z,99246.13
2023-04-23T04:43:27.477Z,99240.84
2023-04-23T04:45:54.045Z,99243.38
2023-04-23T04:48:20.610Z,99248.38
2023-04-23T04:50:47.204Z,99241.88
2023-04-23T04:53:13.721Z,99251.19
2023-04-23T04:55:40.565Z,99251.63
2023-04-23T04:58:07.190Z,99249.25
2023-04-23T05:00:33.795Z,99257.69
2023-04-23T05:03:00.589Z,99255.63
2023-04-23T05:07:54.797Z,99257.47
2023-04-23T05:10:21.830Z,99254.63
2023-04-23T05:15:14.868Z,99258.63
2023-04-23T05:22:35.339Z,99261.09
2023-04-23T05:25:01.802Z,99261.50
2023-04-23T05:27:28.301Z,99258.44
2023-04-23T05:29:54.848Z,99264.75
2023-04-23T05:32:21.503Z,99264.66
2023-04-23T05:34:48.009Z,99266.00
2023-04-23T05:37:14.565Z,99275.03
2023-04-23T05:39:42.258Z,99270.81
2023-04-23T05:42:09.729Z,99283.75
2023-04-23T05:44:36.244Z,99276.47
2023-04-23T05:47:02.737Z,99278.50
2023-04-23T05:49:29.186Z,99273.22
2023-04-23T05:51:55.993Z,99280.31
2023-04-23T05:54:22.650Z,99280.78
2023-04-23T05:59:15.554Z,99285.69
2023-04-23T06:01:42.227Z,99288.50
2023-04-23T06:04:08.994Z,99291.94
2023-04-23T06:06:35.617Z,99290.97
2023-04-23T06:09:02.121Z,99291.97
2023-04-23T06:18:47.810Z,99292.59
2023-04-23T06:21:14.362Z,99292.28
2023-04-23T06:23:40.816Z,99297.91
2023-04-23T06:28:33.786Z,99295.84
2023-04-23T06:31:00.294Z,99293.34
2023-04-23T06:33:26.811Z,99294.63
2023-04-23T06:35:53.391Z,99296.25
2023-04-23T06:38:19.867Z,99301.03
2023-04-23T06:43:12.763Z,99299.69
2023-04-23T06:57:55.964Z,99305.22
2023-04-23T07:00:23.645Z,99300.78
2023-04-23T07:02:50.309Z,99303.91
2023-04-23T07:05:17.927Z,99302.31
2023-04-23T07:07:44.586Z,99307.97
2023-04-23T07:10:12.112Z,99304.38
2023-04-23T07:12:39.589Z,99298.69
2023-04-23T07:15:07.025Z,99305.28
2023-04-23T07:17:33.886Z,99304.00
2023-04-23T07:20:00.425Z,99307.88
2023-04-23T07:22:27.781Z,99305.59
2023-04-23T07:24:56.106Z,99300.69
2023-04-23T07:27:22.769Z,99307.44
2023-04-23T07:29:49.244Z,99305.03
2023-04-23T07:32:15.766Z,99306.25
2023-04-23T07:34:42.933Z,99301.78
2023-04-23T07:37:09.744Z,99310.69
2023-04-23T07:39:36.301Z,99317.47
2023-04-23T07:42:02.873Z,99305.97
2023-04-23T07:44:29.413Z,99314.00
2023-04-23T07:46:55.901Z,99305.22
2023-04-23T07:49:22.393Z,99312.09
2023-04-23T07:51:48.905Z,99303.81
2023-04-23T07:54:15.530Z,99306.53
2023-04-23T07:56:43.210Z,99304.53
2023-04-23T07:59:10.108Z,99307.47
2023-04-23T08:01:36.696Z,99304.50
2023-04-23T08:04:03.401Z,99306.28
2023-04-23T08:06:30.161Z,99308.00
2023-04-23T08:08:57.368Z,99305.41
2023-04-23T08:11:23.997Z,99316.97
2023-04-23T08:13:50.498Z,99315.19
2023-04-23T08:16:17.011Z,99312.66
2023-04-23T08:18:50.932Z,99308.97
2023-04-23T08:21:24.608Z,99316.00
2023-04-23T08:23:51.206Z,99313.19
2023-04-23T08:26:17.910Z,99311.00
2023-04-23T08:28:46.756Z,99307.09
2023-04-23T08:31:25.663Z,99308.69
2023-04-23T08:33:53.767Z,99311.22
2023-04-23T08:36:20.382Z,99306.56
2023-04-23T08:38:46.838Z,99297.66
2023-04-23T08:41:15.197Z,99292.41
2023-04-23T08:43:45.034Z,99289.78
2023-04-23T08:56:02.848Z,99284.69
2023-04-23T08:58:30.177Z,99288.84
2023-04-23T09:00:57.508Z,99279.31
2023-04-23T09:03:25.135Z,99273.91
2023-04-23T09:05:51.901Z,99281.94
2023-04-23T09:08:20.683Z,99280.47
2023-04-23T09:10:47.186Z,99277.31
2023-04-23T09:13:14.450Z,99274.59
2023-04-23T09:15:41.415Z,99285.66
2023-04-23T09:18:07.982Z,99280.97
2023-04-23T09:20:34.595Z,99277.16
2023-04-23T09:23:01.372Z,99282.19
2023-04-23T09:25:27.839Z,99278.59
2023-04-23T09:27:54.338Z,99277.53
2023-04-23T09:30:21.013Z,99274.75
2023-04-23T09:32:47.988Z,99272.28
2023-04-23T09:35:18.011Z,99270.78
2023-04-23T09:37:49.429Z,99273.00
2023-04-23T09:40:17.646Z,99264.00
2023-04-23T09:42:51.342Z,99261.78
2023-04-23T09:45:18.031Z,99266.03
2023-04-23T09:47:55.598Z,99265.44
2023-04-23T09:50:39.574Z,99269.81
2023-04-23T09:53:08.986Z,99270.81
2023-04-23T09:55:40.050Z,99263.16
2023-04-23T09:58:11.437Z,99260.16
2023-04-23T10:00:39.832Z,99259.00
2023-04-23T10:03:07.704Z,99261.53
2023-04-23T10:08:08.236Z,99263.13
2023-04-23T10:10:40.608Z,99257.41
2023-04-23T10:13:20.126Z,99258.22
